createdAt,value
2019-03-05T00:01:10.361Z,1.58
2019-03-05T00:03:38.963Z,1.63
2019-03-05T00:06:07.599Z,1.78
2019-03-05T00:08:36.298Z,1.67
2019-03-05T00:11:05.038Z,1.33
2019-03-05T00:13:33.598Z,1.18
2019-03-05T00:16:02.324Z,1.18
2019-03-05T00:18:30.929Z,1.32
2019-03-05T00:20:59.564Z,1.31
2019-03-05T00:23:47.613Z,1.15
2019-03-05T00:26:18.187Z,1.12
2019-03-05T00:29:14.776Z,1.31
2019-03-05T00:31:47.634Z,1.31
2019-03-05T00:34:40.278Z,1.24
2019-03-05T00:37:11.876Z,1.26
2019-03-05T00:40:18.007Z,1.36
2019-03-05T00:42:55.601Z,1.18
2019-03-05T00:45:38.981Z,1.21
2019-03-05T00:48:28.395Z,1.26
2019-03-05T00:51:24.933Z,1.25
2019-03-05T00:54:15.149Z,1.06
2019-03-05T00:56:55.709Z,1.16
2019-03-05T00:59:31.263Z,1.06
2019-03-05T01:02:11.656Z,1.14
2019-03-05T01:04:54.957Z,1.24
2019-03-05T01:07:24.797Z,1.20
2019-03-05T01:09:53.436Z,1.13
2019-03-05T01:12:23.042Z,1.24
2019-03-05T01:14:52.684Z,1.43
2019-03-05T01:17:21.410Z,1.53
2019-03-05T01:19:50.082Z,1.48
2019-03-05T01:22:18.758Z,1.46
2019-03-05T01:24:47.741Z,1.56
2019-03-05T01:27:16.383Z,1.60
2019-03-05T01:29:45.065Z,1.54
2019-03-05T01:32:25.680Z,1.52
2019-03-05T01:34:55.940Z,1.62
2019-03-05T01:37:24.658Z,1.58
2019-03-05T01:39:59.291Z,1.51
2019-03-05T01:42:27.931Z,1.48
2019-03-05T01:44:56.520Z,1.37
2019-03-05T01:47:25.147Z,1.29
2019-03-05T01:49:53.826Z,1.48
2019-03-05T01:52:22.425Z,1.45
2019-03-05T01:54:50.916Z,1.55
2019-03-05T01:57:19.444Z,1.44
2019-03-05T01:59:47.929Z,1.12
2019-03-05T02:02:16.523Z,1.06
2019-03-05T02:04:45.228Z,1.17
2019-03-05T02:07:13.904Z,1.19
2019-03-05T02:09:42.530Z,1.23
2019-03-05T02:12:11.196Z,0.99
2019-03-05T02:14:39.751Z,0.91
2019-03-05T02:17:08.415Z,1.08
2019-03-05T02:19:40.859Z,0.70
2019-03-05T02:22:12.693Z,0.88
2019-03-05T02:25:06.793Z,0.96
2019-03-05T02:27:51.875Z,0.97
2019-03-05T02:30:58.655Z,0.79
2019-03-05T02:33:30.196Z,0.66
2019-03-05T02:36:07.526Z,0.87
2019-03-05T02:38:41.761Z,0.88
2019-03-05T02:41:16.316Z,0.70
2019-03-05T02:44:10.645Z,0.65
2019-03-05T02:46:48.113Z,0.63
2019-03-05T02:49:42.000Z,0.55
2019-03-05T02:52:40.389Z,0.61
2019-03-05T02:55:23.853Z,0.49
2019-03-05T02:57:51.234Z,0.35
2019-03-05T03:00:22.627Z,0.22
2019-03-05T03:02:57.569Z,0.09
2019-03-05T03:05:36.860Z,0.09
2019-03-05T03:08:05.546Z,0.17
2019-03-05T03:10:34.150Z,0.05
2019-03-05T03:13:02.810Z,0.12
2019-03-05T03:15:31.443Z,0.21
2019-03-05T03:18:00.039Z,0.20
2019-03-05T03:20:28.668Z,0.11
2019-03-05T03:22:57.462Z,-0.12
2019-03-05T03:25:26.070Z,-0.22
2019-03-05T03:27:54.992Z,-0.36
2019-03-05T03:30:23.799Z,-0.32
2019-03-05T03:32:52.499Z,-0.23
2019-03-05T03:35:21.163Z,-0.14
2019-03-05T03:37:49.831Z,-0.12
2019-03-05T03:40:19.958Z,-0.22
2019-03-05T03:42:48.633Z,-0.04
2019-03-05T03:45:19.016Z,0.04
2019-03-05T03:47:47.631Z,0.09
2019-03-05T03:50:16.192Z,-0.14
2019-03-05T03:52:44.932Z,-0.13
2019-03-05T03:55:15.105Z,0.06
2019-03-05T03:57:43.735Z,0.14
2019-03-05T04:00:20.223Z,-0.08
2019-03-05T04:02:48.871Z,-0.25
2019-03-05T04:05:17.515Z,-0.20
2019-03-05T04:07:46.196Z,-0.13
2019-03-05T04:10:16.032Z,-0.16
2019-03-05T04:12:44.720Z,-0.19
2019-03-05T04:15:16.079Z,-0.06
2019-03-05T04:17:44.720Z,-0.14
2019-03-05T04:20:17.402Z,-0.40
2019-03-05T04:22:46.050Z,-0.54
2019-03-05T04:25:14.659Z,-0.44
2019-03-05T04:27:43.289Z,-0.51
2019-03-05T04:30:14.101Z,-0.47
2019-03-05T04:32:42.718Z,-0.39
2019-03-05T04:35:14.119Z,-0.20
2019-03-05T04:37:42.731Z,-0.31
2019-03-05T04:40:12.865Z,-0.53
2019-03-05T04:42:41.534Z,-0.54
2019-03-05T04:45:48.965Z,-0.51
2019-03-05T04:48:18.757Z,-0.30
2019-03-05T04:50:56.673Z,-0.37
2019-03-05T04:53:25.350Z,-0.60
2019-03-05T04:55:54.037Z,-0.84
2019-03-05T04:58:22.593Z,-0.72
2019-03-05T05:00:51.299Z,-0.56
2019-03-05T05:03:20.061Z,-0.59
2019-03-05T05:05:48.739Z,-0.44
2019-03-05T05:08:17.408Z,-0.36
2019-03-05T05:10:45.980Z,-0.47
2019-03-05T05:13:14.654Z,-0.15
2019-03-05T05:15:43.223Z,-0.18
2019-03-05T05:18:11.825Z,-0.22
2019-03-05T05:20:40.472Z,-0.25
2019-03-05T05:23:09.049Z,-0.10
2019-03-05T05:25:37.730Z,0.05
2019-03-05T05:28:06.215Z,-0.01
2019-03-05T05:30:36.099Z,0.21
2019-03-05T05:33:05.440Z,0.39
2019-03-05T05:35:34.002Z,0.39
2019-03-05T05:38:02.646Z,0.64
2019-03-05T05:40:36.139Z,0.60
2019-03-05T05:43:06.951Z,1.00
2019-03-05T05:45:42.537Z,1.01
2019-03-05T05:48:11.150Z,1.36
2019-03-05T05:50:39.709Z,1.57
2019-03-05T05:53:08.390Z,1.75
2019-03-05T05:55:37.064Z,1.88
2019-03-05T05:58:06.403Z,1.99
2019-03-05T06:00:36.638Z,2.11
2019-03-05T06:03:05.515Z,2.15
2019-03-05T06:05:34.158Z,2.48
2019-03-05T06:08:02.909Z,2.71
2019-03-05T06:10:31.711Z,2.92
2019-03-05T06:13:00.519Z,3.16
2019-03-05T06:15:29.303Z,3.32
2019-03-05T06:17:58.041Z,3.72
2019-03-05T06:20:26.813Z,4.36
2019-03-05T06:22:55.526Z,5.37
2019-03-05T06:25:24.203Z,6.24
2019-03-05T06:27:52.969Z,6.82
2019-03-05T06:30:23.414Z,7.84
2019-03-05T06:32:52.107Z,8.53
2019-03-05T06:35:20.860Z,9.19
2019-03-05T06:37:52.201Z,9.73
2019-03-05T06:40:26.199Z,10.53
2019-03-05T06:42:54.957Z,10.96
2019-03-05T06:45:24.932Z,11.03
2019-03-05T06:47:53.782Z,11.22
2019-03-05T06:50:24.806Z,11.49
2019-03-05T06:52:53.564Z,11.81
2019-03-05T06:55:22.304Z,11.66
2019-03-05T06:57:51.231Z,11.55
2019-03-05T07:00:41.099Z,11.44
2019-03-05T07:03:13.055Z,11.69
2019-03-05T07:06:17.989Z,11.47
2019-03-05T07:08:55.586Z,12.28
2019-03-05T07:11:38.931Z,12.85
2019-03-05T07:14:22.629Z,13.23
2019-03-05T07:17:18.396Z,12.98
2019-03-05T07:19:58.291Z,13.27
2019-03-05T07:22:50.801Z,13.99
2019-03-05T07:25:19.538Z,13.83
2019-03-05T07:27:48.216Z,13.15
2019-03-05T07:30:17.888Z,12.96
2019-03-05T07:32:46.601Z,12.93
2019-03-05T07:35:17.525Z,13.52
2019-03-05T07:37:46.284Z,14.17
2019-03-05T07:40:14.895Z,14.58
2019-03-05T07:42:43.577Z,14.95
2019-03-05T07:45:12.679Z,15.68
2019-03-05T07:47:41.367Z,16.03
2019-03-05T07:50:11.698Z,16.30
2019-03-05T07:52:40.669Z,16.58
2019-03-05T07:55:14.402Z,16.19
2019-03-05T07:57:43.213Z,16.06
2019-03-05T08:00:14.813Z,16.47
2019-03-05T08:02:43.496Z,16.30
2019-03-05T08:05:13.787Z,16.60
2019-03-05T08:07:42.625Z,16.54
2019-03-05T08:10:23.192Z,16.96
2019-03-05T08:12:57.390Z,17.55
2019-03-05T08:15:33.559Z,17.92
2019-03-05T08:18:02.250Z,18.03
2019-03-05T08:20:30.895Z,18.16
2019-03-05T08:22:59.507Z,17.82
2019-03-05T08:25:28.069Z,17.95
2019-03-05T08:27:59.911Z,18.66
2019-03-05T08:30:28.781Z,19.52
2019-03-05T08:32:57.521Z,20.57
2019-03-05T08:35:26.196Z,20.98
2019-03-05T08:37:55.078Z,21.74
2019-03-05T08:40:23.973Z,22.20
2019-03-05T08:42:52.771Z,22.55
2019-03-05T08:45:29.271Z,22.18
2019-03-05T08:47:53.533Z,23.80
2019-03-05T08:50:22.315Z,24.22
2019-03-05T08:52:50.887Z,23.71
2019-03-05T08:55:19.491Z,23.44
2019-03-05T08:57:48.170Z,23.40
2019-03-05T09:00:22.120Z,24.43
2019-03-05T09:02:50.865Z,25.35
2019-03-05T09:05:20.766Z,26.62
2019-03-05T09:07:49.852Z,26.39
2019-03-05T09:10:24.285Z,25.79
2019-03-05T09:12:57.184Z,26.38
2019-03-05T09:15:33.308Z,26.57
2019-03-05T09:18:02.299Z,26.68
2019-03-05T09:20:31.154Z,26.97
2019-03-05T09:22:59.982Z,27.33
2019-03-05T09:25:28.734Z,26.93
2019-03-05T09:28:07.173Z,28.06
2019-03-05T09:30:37.083Z,28.54
2019-03-05T09:33:19.486Z,30.15
2019-03-05T09:35:50.578Z,31.16
2019-03-05T09:38:21.371Z,31.25
2019-03-05T09:40:50.014Z,30.93
2019-03-05T09:43:19.000Z,30.34
2019-03-05T09:45:47.821Z,31.69
2019-03-05T09:48:16.730Z,31.51
2019-03-05T09:50:46.186Z,32.79
2019-03-05T09:53:14.928Z,32.12
2019-03-05T09:55:45.330Z,32.45
2019-03-05T09:58:14.286Z,33.08
2019-03-05T10:03:48.209Z,33.79
2019-03-05T10:06:20.154Z,34.41
2019-03-05T10:08:48.799Z,35.17
2019-03-05T10:11:17.407Z,34.99
2019-03-05T10:13:45.985Z,35.04
2019-03-05T10:16:14.667Z,35.85
2019-03-05T10:18:43.231Z,34.65
2019-03-05T10:21:12.455Z,34.36
2019-03-05T10:23:40.985Z,33.92
2019-03-05T10:26:10.647Z,33.13
2019-03-05T10:28:39.376Z,34.29
2019-03-05T10:31:13.685Z,34.16
2019-03-05T10:33:42.384Z,34.66
2019-03-05T10:36:11.317Z,34.75
2019-03-05T10:38:40.205Z,34.26
2019-03-05T10:41:09.013Z,33.54
2019-03-05T10:43:37.865Z,34.68
2019-03-05T10:46:06.917Z,35.34
2019-03-05T10:48:35.604Z,34.20
2019-03-05T10:51:04.704Z,33.19
2019-03-05T10:53:37.583Z,34.29
2019-03-05T10:56:15.415Z,34.47
2019-03-05T10:58:45.462Z,34.22
2019-03-05T11:01:18.379Z,34.02
2019-03-05T11:03:48.115Z,34.81
2019-03-05T11:06:17.507Z,35.30
2019-03-05T11:08:48.033Z,35.79
2019-03-05T11:11:17.111Z,35.35
2019-03-05T11:13:46.185Z,36.71
2019-03-05T11:16:16.255Z,37.27
2019-03-05T11:18:45.341Z,36.29
2019-03-05T11:21:14.104Z,37.11
2019-03-05T11:23:43.176Z,37.43
2019-03-05T11:26:12.073Z,35.80
2019-03-05T11:28:42.612Z,36.06
2019-03-05T11:31:13.067Z,35.90
2019-03-05T11:33:44.936Z,37.49
2019-03-05T11:36:13.768Z,38.54
2019-03-05T11:38:42.842Z,38.33
2019-03-05T11:41:11.593Z,39.15
2019-03-05T11:43:40.269Z,38.36
2019-03-05T11:46:11.457Z,38.13
2019-03-05T11:48:43.255Z,37.95
2019-03-05T11:51:12.042Z,39.73
2019-03-05T11:53:40.854Z,39.33
2019-03-05T11:56:09.679Z,39.45
2019-03-05T11:58:38.417Z,39.85
2019-03-05T12:01:10.044Z,40.88
2019-03-05T12:03:38.947Z,41.17
2019-03-05T12:06:07.620Z,42.34
2019-03-05T12:08:37.693Z,41.49
2019-03-05T12:11:06.468Z,41.90
2019-03-05T12:13:36.661Z,40.55
2019-03-05T12:16:06.154Z,37.99
2019-03-05T12:18:34.934Z,39.08
2019-03-05T12:21:03.522Z,40.93
2019-03-05T12:23:32.199Z,40.18
2019-03-05T12:26:00.838Z,37.66
2019-03-05T12:28:29.565Z,36.96
2019-03-05T12:30:58.416Z,37.35
2019-03-05T12:33:27.195Z,37.91
2019-03-05T12:35:55.869Z,37.44
2019-03-05T12:38:24.633Z,39.26
2019-03-05T12:40:53.362Z,39.23
2019-03-05T12:43:22.122Z,38.85
2019-03-05T12:45:50.865Z,38.28
2019-03-05T12:48:19.794Z,37.73
2019-03-05T12:50:48.490Z,37.86
2019-03-05T12:53:18.184Z,36.95
2019-03-05T12:55:47.353Z,36.82
2019-03-05T12:58:16.362Z,37.29
2019-03-05T13:00:45.090Z,37.29
2019-03-05T13:03:13.729Z,38.43
2019-03-05T13:05:42.395Z,38.41
2019-03-05T13:08:11.113Z,38.82
2019-03-05T13:10:39.800Z,39.11
2019-03-05T13:13:14.009Z,38.76
2019-03-05T13:15:40.631Z,37.18
2019-03-05T13:18:09.358Z,35.34
2019-03-05T13:20:38.114Z,34.90
2019-03-05T13:23:09.668Z,34.75
2019-03-05T13:25:38.437Z,34.10
2019-03-05T13:28:09.022Z,35.50
2019-03-05T13:30:40.467Z,35.58
2019-03-05T13:33:09.306Z,34.32
2019-03-05T13:35:38.006Z,35.28
2019-03-05T13:38:12.005Z,32.17
2019-03-05T13:40:40.904Z,31.38
2019-03-05T13:43:09.783Z,30.28
2019-03-05T13:45:42.838Z,32.18
2019-03-05T13:48:24.063Z,33.30
2019-03-05T13:51:13.360Z,32.97
2019-03-05T13:54:09.421Z,30.54
2019-03-05T13:57:09.562Z,29.22
2019-03-05T13:59:48.868Z,29.50
2019-03-05T14:02:26.297Z,30.93
2019-03-05T14:05:13.034Z,32.47
2019-03-05T14:08:08.800Z,34.06
2019-03-05T14:10:37.607Z,33.35
2019-03-05T14:13:06.350Z,33.87
2019-03-05T14:15:35.847Z,33.91
2019-03-05T14:18:05.293Z,33.11
2019-03-05T14:20:35.225Z,34.25
2019-03-05T14:23:04.106Z,34.34
2019-03-05T14:25:32.937Z,34.43
2019-03-05T14:28:01.619Z,35.03
2019-03-05T14:30:30.351Z,34.87
2019-03-05T14:33:00.870Z,35.02
2019-03-05T14:35:29.522Z,34.65
2019-03-05T14:37:58.205Z,34.88
2019-03-05T14:40:29.095Z,34.64
2019-03-05T14:42:58.172Z,33.68
2019-03-05T14:45:29.557Z,34.49
2019-03-05T14:47:59.429Z,32.32
2019-03-05T14:50:28.068Z,31.02
2019-03-05T14:52:56.763Z,29.98
2019-03-05T14:55:25.461Z,28.62
2019-03-05T14:57:54.126Z,27.59
2019-03-05T15:00:23.529Z,26.43
2019-03-05T15:02:52.261Z,25.59
2019-03-05T15:05:23.878Z,24.72
2019-03-05T15:07:52.582Z,24.14
2019-03-05T15:10:21.226Z,23.73
2019-03-05T15:12:50.009Z,23.19
2019-03-05T15:15:21.458Z,22.87
2019-03-05T15:17:50.271Z,22.45
2019-03-05T15:20:18.949Z,22.16
2019-03-05T15:22:47.563Z,21.82
2019-03-05T15:25:17.174Z,21.63
2019-03-05T15:27:45.791Z,21.35
2019-03-05T15:30:16.454Z,21.11
2019-03-05T15:32:45.121Z,20.86
2019-03-05T15:35:13.757Z,20.60
2019-03-05T15:37:42.409Z,20.47
2019-03-05T15:40:13.811Z,20.22
2019-03-05T15:42:42.450Z,19.78
2019-03-05T15:45:13.553Z,19.56
2019-03-05T15:47:42.799Z,19.37
2019-03-05T15:50:13.949Z,19.22
2019-03-05T15:52:42.603Z,19.05
2019-03-05T15:55:13.731Z,18.84
2019-03-05T15:57:42.393Z,18.83
2019-03-05T16:00:16.892Z,18.62
2019-03-05T16:02:45.566Z,18.37
2019-03-05T16:05:16.724Z,18.29
2019-03-05T16:07:48.100Z,18.33
2019-03-05T16:10:18.643Z,18.25
2019-03-05T16:12:47.434Z,18.14
2019-03-05T16:15:18.584Z,18.06
2019-03-05T16:17:46.847Z,17.94
2019-03-05T16:20:19.582Z,17.80
2019-03-05T16:22:51.071Z,17.78
2019-03-05T16:25:22.105Z,17.71
2019-03-05T16:27:50.187Z,17.19
2019-03-05T16:30:48.898Z,17.19
2019-03-05T16:33:38.556Z,17.02
2019-03-05T16:36:20.954Z,17.27
2019-03-05T16:38:56.738Z,17.20
2019-03-05T16:41:29.727Z,17.19
2019-03-05T16:44:14.965Z,16.78
2019-03-05T16:47:01.424Z,16.66
2019-03-05T16:49:44.206Z,16.52
2019-03-05T16:52:23.837Z,16.28
2019-03-05T16:54:59.834Z,16.19
2019-03-05T16:57:33.150Z,16.06
2019-03-05T17:00:06.563Z,16.17
2019-03-05T17:02:39.782Z,16.26
2019-03-05T17:05:22.418Z,16.04
2019-03-05T17:07:55.762Z,15.70
2019-03-05T17:10:26.074Z,15.55
2019-03-05T17:12:54.718Z,15.56
2019-03-05T17:15:23.321Z,15.46
2019-03-05T17:17:51.869Z,15.70
2019-03-05T17:20:20.510Z,15.77
2019-03-05T17:22:52.178Z,15.89
2019-03-05T17:25:22.427Z,15.89
2019-03-05T17:27:51.097Z,15.86
2019-03-05T17:30:22.456Z,15.95
2019-03-05T17:32:51.766Z,15.64
2019-03-05T17:35:20.596Z,15.66
2019-03-05T17:37:49.366Z,15.64
2019-03-05T17:40:18.007Z,15.66
2019-03-05T17:42:46.675Z,15.71
2019-03-05T17:45:23.320Z,15.87
2019-03-05T17:47:52.433Z,15.78
2019-03-05T17:50:21.035Z,15.78
2019-03-05T17:52:49.669Z,15.90
2019-03-05T17:55:26.251Z,15.90
2019-03-05T17:57:54.029Z,15.94
2019-03-05T18:00:30.360Z,15.94
2019-03-05T18:02:59.007Z,15.85
2019-03-05T18:05:27.711Z,15.87
2019-03-05T18:07:56.340Z,15.86
2019-03-05T18:10:25.154Z,15.80
2019-03-05T18:12:53.836Z,15.71
2019-03-05T18:15:22.461Z,15.60
2019-03-05T18:17:51.129Z,15.44
2019-03-05T18:20:21.429Z,15.37
2019-03-05T18:22:50.285Z,15.30
2019-03-05T18:25:19.761Z,15.20
2019-03-05T18:27:48.392Z,15.12
2019-03-05T18:30:21.844Z,14.99
2019-03-05T18:32:50.546Z,14.86
2019-03-05T18:35:21.682Z,14.91
2019-03-05T18:37:50.314Z,14.73
2019-03-05T18:40:23.268Z,14.69
2019-03-05T18:42:51.951Z,14.56
2019-03-05T18:45:32.075Z,14.46
2019-03-05T18:48:00.707Z,14.13
2019-03-05T18:50:29.342Z,14.02
2019-03-05T18:52:59.215Z,14.14
2019-03-05T18:55:28.135Z,14.08
2019-03-05T18:57:56.813Z,14.10
2019-03-05T19:00:36.548Z,14.01
2019-03-05T19:03:10.575Z,14.05
2019-03-05T19:05:39.434Z,13.98
2019-03-05T19:08:08.218Z,14.03
2019-03-05T19:10:36.944Z,13.85
2019-03-05T19:13:05.579Z,13.78
2019-03-05T19:15:34.365Z,13.83
2019-03-05T19:18:07.189Z,13.67
2019-03-05T19:20:35.894Z,13.58
2019-03-05T19:23:04.570Z,13.69
2019-03-05T19:25:40.568Z,13.66
2019-03-05T19:28:11.415Z,13.64
2019-03-05T19:30:47.959Z,13.62
2019-03-05T19:33:16.586Z,13.53
2019-03-05T19:35:45.267Z,13.54
2019-03-05T19:38:13.949Z,13.57
2019-03-05T19:40:46.896Z,13.59
2019-03-05T19:43:15.527Z,13.48
2019-03-05T19:45:44.210Z,13.63
2019-03-05T19:48:12.947Z,13.75
2019-03-05T19:50:42.003Z,13.67
2019-03-05T19:53:10.686Z,13.79
2019-03-05T19:55:39.420Z,14.01
2019-03-05T19:58:12.578Z,14.10
2019-03-05T20:00:56.432Z,13.92
2019-03-05T20:03:25.131Z,13.98
2019-03-05T20:05:53.809Z,14.06
2019-03-05T20:08:22.532Z,13.90
2019-03-05T20:10:51.218Z,13.86
2019-03-05T20:13:19.861Z,14.03
2019-03-05T20:15:48.498Z,14.11
2019-03-05T20:18:16.990Z,14.06
2019-03-05T20:20:45.662Z,13.87
2019-03-05T20:23:14.302Z,13.84
2019-03-05T20:25:43.076Z,13.69
2019-03-05T20:28:12.117Z,13.62
2019-03-05T20:30:40.867Z,13.58
2019-03-05T20:33:09.728Z,13.57
2019-03-05T20:35:38.378Z,13.74
2019-03-05T20:38:07.166Z,13.58
2019-03-05T20:40:35.847Z,13.25
2019-03-05T20:43:05.286Z,13.19
2019-03-05T20:45:42.625Z,13.20
2019-03-05T20:48:11.259Z,13.33
2019-03-05T20:50:39.923Z,13.30
2019-03-05T20:53:08.573Z,13.01
2019-03-05T20:55:37.203Z,12.80
2019-03-05T20:58:05.830Z,13.08
2019-03-05T21:00:35.501Z,13.26
2019-03-05T21:03:09.335Z,13.32
2019-03-05T21:05:40.344Z,13.13
2019-03-05T21:08:09.024Z,13.09
2019-03-05T21:10:37.854Z,13.12
2019-03-05T21:13:07.054Z,13.14
2019-03-05T21:15:36.639Z,13.04
2019-03-05T21:18:12.978Z,13.02
2019-03-05T21:20:41.590Z,12.87
2019-03-05T21:23:10.260Z,12.73
2019-03-05T21:25:38.885Z,12.64
2019-03-05T21:28:07.632Z,12.65
2019-03-05T21:30:36.319Z,12.65
2019-03-05T21:33:04.963Z,12.64
2019-03-05T21:35:33.637Z,12.59
2019-03-05T21:38:02.262Z,12.60
2019-03-05T21:40:31.897Z,12.49
2019-03-05T21:43:00.459Z,12.30
2019-03-05T21:45:43.816Z,12.17
2019-03-05T21:48:12.459Z,12.25
2019-03-05T21:50:41.100Z,12.42
2019-03-05T21:53:09.792Z,12.69
2019-03-05T21:55:38.468Z,12.76
2019-03-05T21:58:07.097Z,12.52
2019-03-05T22:00:40.407Z,12.19
2019-03-05T22:03:09.055Z,11.98
2019-03-05T22:05:37.829Z,11.91
2019-03-05T22:08:06.457Z,12.05
2019-03-05T22:10:35.331Z,12.38
2019-03-05T22:13:03.973Z,12.44
2019-03-05T22:15:34.244Z,12.51
2019-03-05T22:18:02.878Z,12.47
2019-03-05T22:20:31.541Z,12.59
2019-03-05T22:23:00.357Z,12.73
2019-03-05T22:25:29.357Z,12.67
2019-03-05T22:28:01.041Z,12.82
2019-03-05T22:30:37.611Z,12.85
2019-03-05T22:33:06.561Z,12.79
2019-03-05T22:35:35.204Z,12.54
2019-03-05T22:38:03.846Z,12.33
2019-03-05T22:40:32.412Z,12.29
2019-03-05T22:43:01.059Z,12.23
2019-03-05T22:45:31.094Z,12.14
2019-03-05T22:47:59.777Z,12.20
2019-03-05T22:50:28.333Z,12.15
2019-03-05T22:52:57.008Z,12.01
2019-03-05T22:55:25.644Z,11.79
2019-03-05T22:57:54.285Z,11.75
2019-03-05T23:00:36.271Z,11.79
2019-03-05T23:03:07.079Z,11.88
2019-03-05T23:05:35.806Z,11.90
2019-03-05T23:08:04.835Z,12.00
2019-03-05T23:10:33.498Z,12.13
2019-03-05T23:13:02.165Z,12.41
2019-03-05T23:15:30.917Z,12.50
2019-03-05T23:17:59.404Z,12.37
2019-03-05T23:20:28.685Z,12.15
2019-03-05T23:22:57.360Z,12.03
2019-03-05T23:25:26.159Z,11.90
2019-03-05T23:27:55.107Z,11.76
2019-03-05T23:30:23.727Z,11.65
2019-03-05T23:32:53.524Z,11.53
2019-03-05T23:35:22.299Z,11.48
2019-03-05T23:37:51.167Z,11.35
2019-03-05T23:40:20.237Z,11.30
2019-03-05T23:42:48.859Z,11.28
2019-03-05T23:45:18.806Z,11.23
2019-03-05T23:47:47.680Z,11.16
2019-03-05T23:50:18.135Z,11.07
2019-03-05T23:52:46.761Z,10.93
2019-03-05T23:55:16.493Z,10.72
2019-03-05T23:57:45.451Z,10.56
